createdAt,value
2022-07-31T00:00:28.667Z,19.10
2022-07-31T00:03:05.375Z,19.09
2022-07-31T00:05:41.546Z,19.08
2022-07-31T00:08:11.008Z,19.07
2022-07-31T00:10:39.422Z,19.09
2022-07-31T00:13:07.485Z,19.07
2022-07-31T00:15:35.533Z,19.07
2022-07-31T00:18:03.554Z,19.08
2022-07-31T00:20:31.537Z,19.07
2022-07-31T00:23:00.154Z,19.08
2022-07-31T00:25:28.150Z,19.06
2022-07-31T00:27:56.212Z,19.02
2022-07-31T00:30:24.595Z,19.05
2022-07-31T00:32:52.990Z,19.07
2022-07-31T00:35:21.127Z,19.07
2022-07-31T00:37:49.445Z,19.05
2022-07-31T00:40:17.978Z,19.03
2022-07-31T00:42:46.292Z,19.04
2022-07-31T00:45:14.314Z,19.05
2022-07-31T00:47:43.086Z,19.06
2022-07-31T00:50:12.793Z,19.10
2022-07-31T00:52:41.108Z,19.07
2022-07-31T00:55:09.460Z,19.10
2022-07-31T00:57:37.571Z,19.09
2022-07-31T01:00:06.812Z,19.08
2022-07-31T01:02:35.214Z,19.12
2022-07-31T01:05:03.652Z,19.02
2022-07-31T01:07:31.686Z,18.99
2022-07-31T01:10:06.534Z,19.03
2022-07-31T01:12:45.494Z,19.04
2022-07-31T01:15:14.166Z,18.98
2022-07-31T01:17:45.431Z,18.95
2022-07-31T01:20:14.149Z,18.91
2022-07-31T01:23:00.862Z,18.93
2022-07-31T01:25:54.843Z,18.95
2022-07-31T01:29:00.769Z,18.93
2022-07-31T01:31:44.057Z,18.97
2022-07-31T01:34:27.992Z,18.97
2022-07-31T01:37:10.385Z,18.95
2022-07-31T01:39:56.336Z,18.87
2022-07-31T01:42:27.221Z,18.83
2022-07-31T01:45:00.395Z,18.82
2022-07-31T01:47:31.032Z,18.79
2022-07-31T01:50:01.573Z,18.75
2022-07-31T01:52:33.095Z,18.73
2022-07-31T01:55:02.591Z,18.72
2022-07-31T01:57:34.654Z,18.72
2022-07-31T02:00:33.578Z,18.68
2022-07-31T02:03:04.960Z,18.54
2022-07-31T02:05:39.262Z,18.54
2022-07-31T02:08:08.779Z,18.51
2022-07-31T02:10:38.697Z,18.50
2022-07-31T02:13:07.283Z,18.51
2022-07-31T02:15:36.357Z,18.43
2022-07-31T02:18:07.023Z,18.42
2022-07-31T02:20:42.881Z,18.42
2022-07-31T02:23:13.141Z,18.42
2022-07-31T02:25:41.936Z,18.44
2022-07-31T02:28:13.352Z,18.45
2022-07-31T02:30:44.578Z,18.44
2022-07-31T02:33:16.991Z,18.44
2022-07-31T02:35:46.079Z,18.46
2022-07-31T02:38:23.635Z,18.48
2022-07-31T02:40:58.181Z,18.46
2022-07-31T02:43:27.672Z,18.48
2022-07-31T02:45:58.647Z,18.53
2022-07-31T02:48:27.736Z,18.51
2022-07-31T02:50:58.205Z,18.56
2022-07-31T02:53:27.310Z,18.56
2022-07-31T02:55:59.545Z,18.55
2022-07-31T02:58:27.576Z,18.52
2022-07-31T03:01:03.771Z,18.45
2022-07-31T03:03:32.330Z,18.42
2022-07-31T03:06:00.665Z,18.43
2022-07-31T03:08:28.938Z,18.37
2022-07-31T03:11:01.611Z,18.33
2022-07-31T03:13:32.146Z,18.35
2022-07-31T03:16:01.248Z,18.32
2022-07-31T03:18:31.459Z,18.36
2022-07-31T03:20:59.481Z,18.29
2022-07-31T03:23:36.400Z,18.30
2022-07-31T03:26:18.359Z,18.29
2022-07-31T03:28:46.546Z,18.23
2022-07-31T03:31:15.182Z,18.22
2022-07-31T03:33:43.836Z,18.24
2022-07-31T03:36:12.753Z,18.20
2022-07-31T03:38:43.845Z,18.24
2022-07-31T03:41:20.044Z,18.19
2022-07-31T03:43:49.326Z,18.22
2022-07-31T03:46:22.048Z,18.23
2022-07-31T03:48:52.998Z,18.30
2022-07-31T03:51:21.998Z,18.31
2022-07-31T03:53:51.752Z,18.31
2022-07-31T03:56:41.096Z,18.35
2022-07-31T03:59:16.091Z,18.40
2022-07-31T04:01:57.759Z,18.46
2022-07-31T04:04:53.191Z,18.53
2022-07-31T04:07:21.300Z,18.58
2022-07-31T04:09:50.467Z,18.56
2022-07-31T04:12:18.593Z,18.48
2022-07-31T04:14:46.508Z,18.48
2022-07-31T04:17:14.689Z,18.44
2022-07-31T04:19:42.798Z,18.42
2022-07-31T04:22:10.912Z,18.41
2022-07-31T04:24:39.556Z,18.37
2022-07-31T04:27:18.075Z,18.27
2022-07-31T04:29:46.706Z,18.28
2022-07-31T04:32:16.210Z,18.37
2022-07-31T04:35:06.466Z,18.41
2022-07-31T04:37:34.624Z,18.41
2022-07-31T04:40:03.258Z,18.44
2022-07-31T04:42:32.792Z,18.45
2022-07-31T04:45:01.462Z,18.38
2022-07-31T04:47:29.468Z,18.35
2022-07-31T04:49:58.161Z,18.36
2022-07-31T04:52:28.141Z,18.37
2022-07-31T04:54:58.387Z,18.39
2022-07-31T04:57:28.535Z,18.34
2022-07-31T04:59:59.027Z,18.28
2022-07-31T05:02:29.465Z,18.17
2022-07-31T05:04:58.247Z,18.13
2022-07-31T05:07:32.823Z,18.12
2022-07-31T05:10:05.721Z,18.10
2022-07-31T05:12:34.218Z,18.10
2022-07-31T05:15:02.304Z,18.05
2022-07-31T05:17:30.391Z,17.99
2022-07-31T05:20:17.254Z,17.94
2022-07-31T05:23:00.017Z,17.92
2022-07-31T05:25:42.387Z,17.89
2022-07-31T05:28:10.405Z,17.88
2022-07-31T05:30:38.451Z,17.90
2022-07-31T05:33:07.049Z,17.89
2022-07-31T05:35:35.154Z,17.87
2022-07-31T05:38:03.335Z,17.89
2022-07-31T05:40:49.837Z,17.88
2022-07-31T05:43:37.220Z,17.93
2022-07-31T05:46:14.599Z,18.04
2022-07-31T05:48:42.712Z,18.06
2022-07-31T05:51:12.441Z,18.09
2022-07-31T05:53:41.353Z,18.13
2022-07-31T05:56:32.822Z,18.21
2022-07-31T05:59:02.064Z,18.22
2022-07-31T06:01:30.320Z,18.26
2022-07-31T06:03:58.544Z,18.36
2022-07-31T06:06:35.434Z,18.38
2022-07-31T06:09:04.948Z,18.41
2022-07-31T06:11:36.990Z,18.47
2022-07-31T06:14:05.130Z,18.47
2022-07-31T06:16:50.286Z,18.51
2022-07-31T06:19:24.517Z,18.53
2022-07-31T06:21:54.040Z,18.59
2022-07-31T06:24:30.574Z,18.75
2022-07-31T06:27:02.798Z,18.83
2022-07-31T06:29:41.915Z,18.96
2022-07-31T06:32:11.960Z,19.06
2022-07-31T06:34:41.142Z,19.21
2022-07-31T06:37:09.633Z,19.30
2022-07-31T06:39:54.580Z,19.44
2022-07-31T06:42:46.661Z,19.62
2022-07-31T06:45:29.834Z,19.75
2022-07-31T06:48:21.702Z,19.87
2022-07-31T06:51:29.240Z,19.91
2022-07-31T06:53:49.879Z,19.98
2022-07-31T06:56:18.148Z,20.14
2022-07-31T06:58:46.616Z,20.27
2022-07-31T07:01:14.802Z,20.43
2022-07-31T07:03:42.801Z,20.44
2022-07-31T07:06:11.518Z,20.56
2022-07-31T07:08:39.837Z,20.61
2022-07-31T07:11:12.007Z,20.79
2022-07-31T07:13:44.891Z,20.94
2022-07-31T07:16:16.329Z,21.09
2022-07-31T07:18:44.735Z,21.17
2022-07-31T07:21:12.808Z,21.25
2022-07-31T07:23:41.402Z,21.38
2022-07-31T07:26:32.611Z,21.29
2022-07-31T07:29:02.609Z,21.45
2022-07-31T07:31:31.423Z,21.63
2022-07-31T07:34:00.616Z,21.66
2022-07-31T07:36:28.759Z,21.79
2022-07-31T07:38:59.154Z,21.86
2022-07-31T07:41:27.357Z,21.82
2022-07-31T07:43:55.587Z,21.89
2022-07-31T07:46:26.832Z,22.02
2022-07-31T07:48:57.971Z,22.06
2022-07-31T07:51:58.946Z,22.15
2022-07-31T07:54:34.571Z,22.16
2022-07-31T07:57:25.334Z,22.39
2022-07-31T08:00:11.019Z,22.55
2022-07-31T08:03:02.675Z,22.82
2022-07-31T08:05:36.305Z,23.13
2022-07-31T08:08:04.738Z,23.22
2022-07-31T08:10:56.182Z,23.26
2022-07-31T08:13:40.607Z,23.34
2022-07-31T08:16:24.206Z,23.53
2022-07-31T08:18:55.353Z,23.54
2022-07-31T08:21:23.440Z,23.59
2022-07-31T08:23:52.907Z,23.63
2022-07-31T08:26:21.704Z,23.42
2022-07-31T08:28:51.232Z,23.39
2022-07-31T08:31:23.500Z,23.40
2022-07-31T08:34:31.833Z,23.20
2022-07-31T08:37:59.940Z,23.23
2022-07-31T08:39:51.836Z,23.29
2022-07-31T08:42:20.028Z,23.33
2022-07-31T08:44:48.469Z,23.36
2022-07-31T08:47:19.363Z,23.35
2022-07-31T08:49:49.503Z,23.50
2022-07-31T08:52:24.973Z,23.78
2022-07-31T08:55:10.987Z,24.13
2022-07-31T08:57:54.751Z,24.33
2022-07-31T09:00:25.015Z,24.41
2022-07-31T09:02:55.194Z,24.48
2022-07-31T09:05:42.957Z,24.66
2022-07-31T09:08:15.030Z,24.75
2022-07-31T09:10:49.596Z,24.87
2022-07-31T09:13:19.164Z,25.11
2022-07-31T09:15:47.896Z,25.05
2022-07-31T09:18:22.077Z,24.89
2022-07-31T09:20:58.919Z,24.96
2022-07-31T09:23:28.519Z,24.91
2022-07-31T09:26:01.950Z,24.84
2022-07-31T09:28:33.737Z,24.87
2022-07-31T09:31:04.425Z,24.87
2022-07-31T09:33:33.765Z,24.87
2022-07-31T09:36:02.140Z,25.04
2022-07-31T09:38:32.494Z,25.11
2022-07-31T09:41:55.529Z,25.43
2022-07-31T09:44:15.938Z,25.68
2022-07-31T09:46:48.392Z,25.73
2022-07-31T09:49:17.197Z,25.79
2022-07-31T09:51:49.944Z,26.04
2022-07-31T09:54:31.550Z,26.35
2022-07-31T09:57:12.609Z,26.59
2022-07-31T09:59:51.667Z,26.90
2022-07-31T10:02:20.520Z,27.10
2022-07-31T10:04:50.645Z,27.08
2022-07-31T10:07:31.621Z,27.02
2022-07-31T10:10:13.435Z,27.19
2022-07-31T10:12:56.410Z,27.03
2022-07-31T10:15:26.744Z,26.96
2022-07-31T10:18:35.793Z,26.86
2022-07-31T10:21:42.664Z,26.85
2022-07-31T10:24:16.627Z,26.49
2022-07-31T10:27:08.018Z,26.10
2022-07-31T10:29:39.548Z,26.17
2022-07-31T10:32:13.101Z,26.38
2022-07-31T10:34:58.790Z,26.77
2022-07-31T10:37:55.425Z,27.24
2022-07-31T10:40:50.129Z,27.38
2022-07-31T10:43:30.559Z,27.57
2022-07-31T10:46:29.942Z,27.65
2022-07-31T10:49:49.091Z,28.15
2022-07-31T10:52:38.606Z,28.18
2022-07-31T10:55:32.964Z,28.28
2022-07-31T10:58:32.081Z,28.65
2022-07-31T11:01:08.658Z,29.05
2022-07-31T11:03:41.905Z,29.48
2022-07-31T11:06:25.174Z,29.56
2022-07-31T11:08:57.765Z,29.51
2022-07-31T11:11:44.474Z,29.50
2022-07-31T11:14:33.354Z,29.79
2022-07-31T11:18:20.993Z,30.30
2022-07-31T11:20:30.988Z,30.32
2022-07-31T11:23:10.908Z,29.95
2022-07-31T11:25:39.312Z,30.31
2022-07-31T11:28:10.536Z,29.89
2022-07-31T11:31:06.487Z,29.79
2022-07-31T11:33:42.951Z,29.49
2022-07-31T11:36:14.411Z,29.39
2022-07-31T11:38:50.199Z,29.73
2022-07-31T11:41:24.525Z,29.72
2022-07-31T11:43:54.663Z,28.80
2022-07-31T11:46:26.721Z,28.35
2022-07-31T11:48:56.394Z,28.63
2022-07-31T11:51:26.968Z,29.40
2022-07-31T11:53:56.831Z,30.02
2022-07-31T11:56:27.778Z,29.92
2022-07-31T11:58:58.058Z,29.82
2022-07-31T12:01:29.227Z,30.34
2022-07-31T12:04:06.255Z,29.53
2022-07-31T12:06:38.541Z,29.72
2022-07-31T12:09:06.972Z,30.27
2022-07-31T12:11:35.112Z,30.20
2022-07-31T12:14:03.120Z,29.74
2022-07-31T12:16:41.953Z,29.10
2022-07-31T12:19:09.970Z,28.45
2022-07-31T12:21:40.172Z,28.12
2022-07-31T12:24:13.736Z,27.91
2022-07-31T12:26:51.606Z,27.20
2022-07-31T12:29:22.003Z,27.03
2022-07-31T12:31:54.627Z,26.90
2022-07-31T12:34:30.328Z,27.19
2022-07-31T12:37:22.515Z,27.76
2022-07-31T12:39:59.902Z,28.56
2022-07-31T12:42:40.738Z,28.74
2022-07-31T12:45:18.175Z,28.32
2022-07-31T12:47:54.426Z,28.23
2022-07-31T12:50:25.135Z,28.24
2022-07-31T12:52:54.562Z,28.34
2022-07-31T12:55:22.693Z,27.78
2022-07-31T12:57:52.231Z,27.46
2022-07-31T13:00:23.551Z,26.99
2022-07-31T13:02:53.049Z,26.82
2022-07-31T13:05:22.387Z,26.54
2022-07-31T13:07:51.362Z,26.38
2022-07-31T13:10:24.897Z,26.27
2022-07-31T13:12:55.496Z,26.18
2022-07-31T13:15:30.286Z,26.08
2022-07-31T13:18:02.085Z,25.98
2022-07-31T13:20:31.311Z,25.94
2022-07-31T13:22:59.566Z,25.73
2022-07-31T13:25:30.807Z,25.49
2022-07-31T13:27:59.784Z,25.48
2022-07-31T13:30:28.768Z,25.30
2022-07-31T13:32:56.879Z,25.28
2022-07-31T13:35:28.344Z,25.15
2022-07-31T13:37:57.028Z,25.14
2022-07-31T13:40:44.888Z,25.05
2022-07-31T13:43:13.844Z,24.90
2022-07-31T13:45:42.176Z,24.57
2022-07-31T13:48:10.535Z,24.38
2022-07-31T13:50:42.048Z,24.16
2022-07-31T13:53:10.776Z,23.95
2022-07-31T13:55:39.015Z,23.98
2022-07-31T13:58:08.409Z,23.83
2022-07-31T14:00:36.887Z,23.90
2022-07-31T14:03:05.372Z,23.86
2022-07-31T14:05:40.571Z,23.89
2022-07-31T14:08:33.075Z,23.81
2022-07-31T14:10:57.356Z,23.88
2022-07-31T14:13:26.039Z,23.68
2022-07-31T14:15:54.054Z,23.78
2022-07-31T14:18:23.494Z,23.71
2022-07-31T14:20:51.986Z,23.64
2022-07-31T14:23:20.016Z,23.79
2022-07-31T14:25:49.300Z,23.82
2022-07-31T14:28:17.391Z,23.94
2022-07-31T14:30:49.783Z,24.04
2022-07-31T14:33:17.970Z,24.12
2022-07-31T14:35:45.972Z,24.14
2022-07-31T14:38:27.127Z,24.27
2022-07-31T14:40:56.141Z,24.39
2022-07-31T14:43:24.333Z,24.63
2022-07-31T14:45:52.513Z,24.75
2022-07-31T14:48:22.040Z,24.38
2022-07-31T14:50:50.135Z,24.51
2022-07-31T14:53:18.110Z,24.51
2022-07-31T14:55:46.419Z,24.84
2022-07-31T14:58:14.483Z,25.18
2022-07-31T15:00:42.551Z,25.49
2022-07-31T15:03:10.524Z,26.43
2022-07-31T15:06:40.035Z,27.21
2022-07-31T15:08:29.034Z,26.92
2022-07-31T15:10:57.125Z,26.32
2022-07-31T15:13:25.308Z,25.70
2022-07-31T15:15:53.831Z,25.12
2022-07-31T15:18:25.714Z,24.97
2022-07-31T15:20:55.019Z,24.63
2022-07-31T15:23:25.130Z,24.33
2022-07-31T15:26:06.329Z,24.06
2022-07-31T15:28:34.751Z,23.75
2022-07-31T15:31:03.326Z,23.60
2022-07-31T15:33:31.488Z,23.34
2022-07-31T15:36:01.871Z,23.41
2022-07-31T15:38:30.758Z,23.22
2022-07-31T15:41:00.011Z,23.11
2022-07-31T15:43:32.118Z,23.09
2022-07-31T15:46:08.952Z,22.89
2022-07-31T15:48:38.224Z,22.87
2022-07-31T15:51:09.100Z,22.74
2022-07-31T15:53:39.414Z,22.71
2022-07-31T15:56:07.660Z,22.57
2022-07-31T15:58:35.871Z,22.55
2022-07-31T16:01:04.422Z,22.52
2022-07-31T16:03:50.297Z,22.42
2022-07-31T16:06:19.421Z,22.37
2022-07-31T16:08:56.130Z,22.24
2022-07-31T16:11:24.295Z,22.11
2022-07-31T16:14:14.604Z,22.11
2022-07-31T16:16:45.798Z,22.06
2022-07-31T16:19:15.278Z,22.06
2022-07-31T16:21:43.844Z,22.04
2022-07-31T16:24:15.528Z,21.96
2022-07-31T16:26:49.605Z,21.87
2022-07-31T16:29:59.570Z,21.70
2022-07-31T16:32:06.953Z,21.67
2022-07-31T16:34:34.922Z,21.64
2022-07-31T16:37:04.237Z,21.57
2022-07-31T16:39:32.483Z,21.55
2022-07-31T16:42:00.449Z,21.50
2022-07-31T16:44:28.705Z,21.46
2022-07-31T16:46:56.842Z,21.40
2022-07-31T16:49:35.572Z,21.32
2022-07-31T16:52:08.210Z,21.34
2022-07-31T16:54:36.235Z,21.37
2022-07-31T16:57:04.651Z,21.36
2022-07-31T16:59:34.357Z,21.32
2022-07-31T17:02:22.415Z,21.28
2022-07-31T17:04:54.017Z,21.28
2022-07-31T17:07:22.515Z,21.26
2022-07-31T17:09:51.860Z,21.22
2022-07-31T17:12:20.545Z,21.23
2022-07-31T17:14:49.376Z,21.18
2022-07-31T17:17:19.442Z,21.18
2022-07-31T17:19:48.307Z,21.20
2022-07-31T17:22:23.718Z,21.11
2022-07-31T17:24:52.363Z,21.09
2022-07-31T17:27:21.686Z,21.08
2022-07-31T17:29:50.118Z,20.97
2022-07-31T17:32:18.771Z,20.93
2022-07-31T17:34:49.829Z,20.93
2022-07-31T17:37:19.102Z,20.90
2022-07-31T17:39:50.006Z,20.88
2022-07-31T17:42:23.598Z,20.81
2022-07-31T17:44:55.248Z,20.80
2022-07-31T17:47:26.039Z,20.72
2022-07-31T17:49:54.244Z,20.70
2022-07-31T17:52:22.343Z,20.68
2022-07-31T17:54:52.291Z,20.66
2022-07-31T17:57:20.380Z,20.62
2022-07-31T17:59:51.057Z,20.57
2022-07-31T18:02:19.080Z,20.56
2022-07-31T18:04:47.251Z,20.54
2022-07-31T18:07:18.094Z,20.55
2022-07-31T18:09:46.465Z,20.50
2022-07-31T18:12:15.864Z,20.43
2022-07-31T18:14:46.326Z,20.41
2022-07-31T18:17:14.393Z,20.41
2022-07-31T18:19:42.715Z,20.40
2022-07-31T18:22:10.986Z,20.39
2022-07-31T18:24:39.788Z,20.39
2022-07-31T18:27:08.079Z,20.36
2022-07-31T18:29:36.485Z,20.37
2022-07-31T18:32:06.999Z,20.38
2022-07-31T18:34:35.541Z,20.38
2022-07-31T18:37:03.767Z,20.33
2022-07-31T18:39:31.799Z,20.33
2022-07-31T18:41:59.929Z,20.32
2022-07-31T18:44:27.959Z,20.29
2022-07-31T18:46:56.030Z,20.26
2022-07-31T18:51:01.845Z,20.22
2022-07-31T18:52:13.190Z,20.16
2022-07-31T18:54:41.651Z,20.12
2022-07-31T18:57:09.789Z,20.08
2022-07-31T18:59:37.955Z,20.04
2022-07-31T19:02:11.343Z,19.97
2022-07-31T19:04:40.183Z,19.91
2022-07-31T19:07:08.779Z,19.88
2022-07-31T19:09:36.935Z,19.78
2022-07-31T19:12:08.266Z,19.78
2022-07-31T19:14:38.565Z,19.73
2022-07-31T19:17:08.312Z,19.67
2022-07-31T19:19:45.991Z,19.62
2022-07-31T19:22:23.123Z,19.58
2022-07-31T19:24:51.734Z,19.55
2022-07-31T19:27:20.017Z,19.54
2022-07-31T19:29:48.029Z,19.57
2022-07-31T19:32:16.108Z,19.58
2022-07-31T19:34:47.993Z,19.57
2022-07-31T19:37:18.397Z,19.57
2022-07-31T19:39:47.541Z,19.58
2022-07-31T19:42:15.696Z,19.61
2022-07-31T19:44:43.741Z,19.61
2022-07-31T19:47:11.886Z,19.61
2022-07-31T19:49:41.086Z,19.54
2022-07-31T19:52:09.256Z,19.55
2022-07-31T19:54:38.763Z,19.53
2022-07-31T19:57:07.469Z,19.57
2022-07-31T19:59:35.403Z,19.53
2022-07-31T20:02:03.872Z,19.50
2022-07-31T20:04:32.126Z,19.40
2022-07-31T20:07:00.115Z,19.39
2022-07-31T20:09:28.148Z,19.39
2022-07-31T20:11:56.239Z,19.41
2022-07-31T20:14:24.302Z,19.41
2022-07-31T20:16:52.271Z,19.42
2022-07-31T20:19:20.229Z,19.38
2022-07-31T20:21:48.290Z,19.41
2022-07-31T20:24:17.842Z,19.40
2022-07-31T20:26:45.893Z,19.38
2022-07-31T20:29:13.900Z,19.40
2022-07-31T20:31:42.330Z,19.37
2022-07-31T20:34:10.291Z,19.34
2022-07-31T20:36:40.173Z,19.32
2022-07-31T20:39:08.612Z,19.27
2022-07-31T20:41:37.092Z,19.20
2022-07-31T20:44:05.571Z,19.17
2022-07-31T20:46:34.193Z,19.15
2022-07-31T20:49:02.564Z,19.14
2022-07-31T20:51:30.772Z,19.14
2022-07-31T20:53:59.064Z,19.11
2022-07-31T20:56:27.292Z,19.06
2022-07-31T20:58:55.387Z,19.05
2022-07-31T21:01:23.724Z,19.06
2022-07-31T21:03:52.656Z,19.08
2022-07-31T21:06:21.127Z,19.07
2022-07-31T21:08:49.055Z,19.07
2022-07-31T21:11:17.097Z,19.06
2022-07-31T21:13:45.532Z,19.05
2022-07-31T21:16:13.686Z,19.06
2022-07-31T21:18:43.574Z,19.07
2022-07-31T21:21:13.277Z,19.05
2022-07-31T21:23:41.351Z,19.04
2022-07-31T21:26:10.140Z,19.04
2022-07-31T21:28:39.540Z,19.06
2022-07-31T21:31:08.295Z,19.07
2022-07-31T21:33:36.914Z,19.08
2022-07-31T21:36:06.088Z,19.08
2022-07-31T21:38:36.505Z,19.08
2022-07-31T21:41:04.919Z,19.03
2022-07-31T21:43:41.233Z,18.95
2022-07-31T21:46:22.815Z,19.01
2022-07-31T21:48:51.780Z,18.99
2022-07-31T21:51:20.282Z,19.00
2022-07-31T21:53:48.471Z,18.90
2022-07-31T21:56:16.750Z,18.91
2022-07-31T21:58:45.056Z,18.92
2022-07-31T22:01:15.317Z,18.92
2022-07-31T22:03:43.668Z,18.90
2022-07-31T22:06:30.270Z,18.83
2022-07-31T22:08:58.321Z,18.83
2022-07-31T22:11:26.384Z,18.81
2022-07-31T22:14:11.814Z,18.78
2022-07-31T22:16:39.970Z,18.79
2022-07-31T22:19:08.327Z,18.80
2022-07-31T22:21:53.923Z,18.79
2022-07-31T22:24:22.218Z,18.82
2022-07-31T22:27:26.460Z,18.81
2022-07-31T22:30:12.894Z,18.80
2022-07-31T22:32:41.083Z,18.80
2022-07-31T22:35:10.721Z,18.80
2022-07-31T22:37:43.119Z,18.81
2022-07-31T22:40:11.524Z,18.79
2022-07-31T22:42:39.554Z,18.77
2022-07-31T22:45:08.237Z,18.79
2022-07-31T22:47:36.898Z,18.79
2022-07-31T22:50:06.623Z,18.79
2022-07-31T22:52:36.478Z,18.79
2022-07-31T22:55:06.316Z,18.78
2022-07-31T22:57:34.431Z,18.81
2022-07-31T23:00:04.559Z,18.82
2022-07-31T23:02:32.832Z,18.81
2022-07-31T23:05:00.826Z,18.81
2022-07-31T23:07:28.961Z,18.76
2022-07-31T23:09:57.169Z,18.69
2022-07-31T23:12:28.496Z,18.70
2022-07-31T23:14:57.718Z,18.70
2022-07-31T23:17:25.867Z,18.68
2022-07-31T23:19:54.645Z,18.67
2022-07-31T23:22:33.822Z,18.69
2022-07-31T23:25:06.247Z,18.72
2022-07-31T23:27:34.376Z,18.71
2022-07-31T23:30:02.581Z,18.64
2022-07-31T23:32:30.632Z,18.53
2022-07-31T23:34:58.681Z,18.57
2022-07-31T23:37:26.601Z,18.58
2022-07-31T23:39:54.614Z,18.57
2022-07-31T23:42:40.460Z,18.54
2022-07-31T23:45:12.943Z,18.49
2022-07-31T23:47:45.012Z,18.48
2022-07-31T23:50:15.858Z,18.46
2022-07-31T23:52:44.000Z,18.34
2022-07-31T23:55:12.988Z,18.38
2022-07-31T23:57:41.314Z,18.35
